CheckWX is a tool to help pilots better visualize weather data.  It is not intended as a substitute for an official pre-flight weather briefing.

08:43:23 UTC

KCKV TAF
Outlaw Field Airport
Clarksville, Tennessee, USA
KCKV 180715Z 1807/1906 00000KT 6SM BR SKC FM180800 00000KT 4SM BR SKC TEMPO 1811/1813 1/2SM FG FM181300 09008KT P6SM FEW250

Oct-18@
07:00 UTC

Oct-18 @ 07:00 UTC

Oct-18@
08:00 UTC

Oct-18 @ 08:00 UTC

KCKV 180715Z 1807/1906 00000KT 6SM BR SKC

Expired

Conditions
Mist
Cloud Levels
  • Clear skies

Oct-18@
08:00 UTC

Oct-18 @ 08:00 UTC

Oct-18@
13:00 UTC

Oct-18 @ 13:00 UTC

FM180800 00000KT 4SM BR SKC

From

From Standard forecast or significant change

Conditions
Mist
Cloud Levels
  • Clear skies

Oct-18@
11:00 UTC

Oct-18 @ 11:00 UTC

Oct-18@
13:00 UTC

Oct-18 @ 13:00 UTC

TEMPO 1811/1813 1/2SM FG

Temporary

Temporary Changes expected for less than half the time period

Conditions
Fog

Oct-18@
13:00 UTC

Oct-18 @ 13:00 UTC

Oct-19@
06:00 UTC

Oct-19 @ 06:00 UTC

FM181300 09008KT P6SM FEW250

From

From Standard forecast or significant change

Wind
  • 090° at 8 KTS
Cloud Levels
  • Few at 25,000' AGL